Ashiya — JD2302 — position and weather

sailwx.info

Track history (hours):
 
Tides and Currents Weather Stations Pressure Air Temp Water Temp Dewpoint Dewpoint Depression Visibility Wind Speed Wind Dir Waves Ship Positions

Ashiya

Last reported at 2017-Dec-17 13:30 UTC. Time now 2017-Dec-17 14:00 UTC.
Position N 34°41' E 135°13'.

Length 96 m; draft 4.5 m.

Type: Cargo ship. MMSI: 431501871.

Date/timePositionNaut miles runAvg speedWind from/ knotsBaromVisibWave heightAir tempDewpointWater temp
2017-Dec-17 13:30N 34°41' E 135°13'0 0.0
2017-Dec-17 13:00N 34°41' E 135°13'0 0.0
2017-Dec-17 12:30N 34°41' E 135°13'0 0.0
2017-Dec-17 12:00N 34°41' E 135°13'0 0.0
2017-Dec-17 11:30N 34°41' E 135°13'0 0.0
2017-Dec-17 11:00N 34°41' E 135°13'0 0.0
2017-Dec-17 10:30N 34°41' E 135°13'0 0.0
2017-Dec-17 10:00N 34°41' E 135°13'0 0.0
2017-Dec-17 09:30N 34°41' E 135°13'0 0.0
2017-Dec-17 09:00N 34°41' E 135°13'0 0.0
2017-Dec-17 08:30N 34°41' E 135°13'0 0.0
2017-Dec-17 08:00N 34°41' E 135°13'0 0.0
2017-Dec-17 07:30N 34°41' E 135°13'0 0.0
2017-Dec-17 07:00N 34°41' E 135°13'0 0.0
2017-Dec-17 06:30N 34°41' E 135°13'0 0.0
2017-Dec-17 06:00N 34°41' E 135°13'0 0.0
2017-Dec-17 05:30N 34°41' E 135°13'0 0.0
2017-Dec-17 05:00N 34°41' E 135°13'0 0.0
2017-Dec-17 04:30N 34°41' E 135°13'0 0.0
2017-Dec-17 04:00N 34°41' E 135°13'0 0.0
2017-Dec-17 03:30N 34°41' E 135°13'0 0.0
2017-Dec-17 03:00N 34°41' E 135°13'0 0.0
2017-Dec-17 02:30N 34°41' E 135°13'0 0.0
2017-Dec-17 02:00N 34°41' E 135°13'3 6.9
2017-Dec-17 01:30N 34°41' E 135°17'0 0.1
2017-Dec-17 00:58N 34°41' E 135°17'0 0.0
2017-Dec-17 00:31N 34°41' E 135°17'0 0.0
2017-Dec-17 00:01N 34°41' E 135°17'0 0.0
2017-Dec-16 23:31N 34°41' E 135°17'2 3.8
2017-Dec-16 23:01N 34°40' E 135°19'2 4.4
2017-Dec-16 22:28N 34°38' E 135°19'0 0.1
2017-Dec-16 21:58N 34°38' E 135°19'0 0.1
2017-Dec-16 21:28N 34°38' E 135°19'0 0.0
2017-Dec-16 20:58N 34°38' E 135°19'0 0.0
2017-Dec-16 20:28N 34°38' E 135°19'0 0.0
2017-Dec-16 19:58N 34°38' E 135°19'0 0.1
2017-Dec-16 19:28N 34°38' E 135°19'0 0.1
2017-Dec-16 18:58N 34°38' E 135°19'0 1.1
2017-Dec-16 18:31N 34°37' E 135°19'612.4
2017-Dec-16 18:00N 34°35' E 135°12'713.8
2017-Dec-16 17:31N 34°35' E 135°04'714.1
2017-Dec-16 17:01N 34°35' E 134°55'714.7
2017-Dec-16 16:30N 34°32' E 134°47'713.4
2017-Dec-16 16:01N 34°29' E 134°40'713.0
2017-Dec-16 15:30N 34°27' E 134°32'613.0
2017-Dec-16 15:00N 34°25' E 134°25'713.3
2017-Dec-16 14:29N 34°24' E 134°17'714.3
2017-Dec-16 14:01N 34°26' E 134°09'7112.6
2017-Dec-16 08:22N 34°07' E 132°45'513.1
2017-Dec-16 08:00N 34°05' E 132°40'713.0
2017-Dec-16 07:30N 34°02' E 132°33'511.0
2017-Dec-16 07:00N 34°03' E 132°26'712.8
2017-Dec-16 06:29N 34°08' E 132°22'612.4
2017-Dec-16 06:00N 34°14' E 132°20'611.7
2017-Dec-16 05:30N 34°17' E 132°26'5 9.2
2017-Dec-16 05:00N 34°21' E 132°29'1 1.8
2017-Dec-16 04:30N 34°21' E 132°31'0 0.0
2017-Dec-16 04:00N 34°21' E 132°31'0 0.0
2017-Dec-16 03:30N 34°21' E 132°31'0 0.0
2017-Dec-16 03:00N 34°21' E 132°31'0 0.0
2017-Dec-16 02:30N 34°21' E 132°31'0 0.0
2017-Dec-16 01:57N 34°21' E 132°31'0 0.0
2017-Dec-16 01:27N 34°21' E 132°31'0 0.0
2017-Dec-16 01:00N 34°21' E 132°31'0 0.0
2017-Dec-16 00:30N 34°21' E 132°31'0 0.0
2017-Dec-16 00:00N 34°21' E 132°31'0 0.0
2017-Dec-15 23:30N 34°21' E 132°31'2 4.3
2017-Dec-15 23:00N 34°19' E 132°29'0 0.8
2017-Dec-15 22:29N 34°19' E 132°29'0 0.1
2017-Dec-15 21:59N 34°19' E 132°29'2 4.2
2017-Dec-15 21:30N 34°20' E 132°26'511.0
2017-Dec-15 21:00N 34°17' E 132°21'612.7
2017-Dec-15 20:30N 34°10' E 132°20'612.7
2017-Dec-15 20:01N 34°05' E 132°25'910.3
2017-Dec-15 19:09N 34°03' E 132°35'212.3
2017-Dec-15 19:00N 34°04' E 132°37'1812.6
2017-Dec-15 17:36N 34°10' E 132°57'7211.5
2017-Dec-15 11:19N 34°25' E 134°23'412.9
2017-Dec-15 11:00N 34°27' E 134°27'613.0
2017-Dec-15 10:30N 34°29' E 134°34'713.1
2017-Dec-15 10:00N 34°32' E 134°42'713.6
2017-Dec-15 09:30N 34°34' E 134°49'714.2
2017-Dec-15 09:01N 34°37' E 134°57'713.1
2017-Dec-15 08:30N 34°36' E 135°05'612.8
2017-Dec-15 08:00N 34°37' E 135°13'611.3
2017-Dec-15 07:31N 34°40' E 135°18'1 2.0
2017-Dec-15 06:59N 34°41' E 135°17'0 0.1
2017-Dec-15 06:29N 34°41' E 135°17'1 2.1
2017-Dec-15 06:00N 34°40' E 135°16'2 3.1
2017-Dec-15 05:29N 34°39' E 135°15'0 0.0
2017-Dec-15 04:59N 34°39' E 135°15'0 0.0
2017-Dec-15 04:29N 34°39' E 135°15'0 0.0
2017-Dec-15 03:59N 34°39' E 135°15'0 0.1
2017-Dec-15 02:31N 34°39' E 135°15'2 1.5
2017-Dec-15 00:59N 34°41' E 135°17'0 0.0
2017-Dec-15 00:31N 34°41' E 135°17'49 8.2
2017-Dec-14 18:30N 34°24' E 134°21'612.6
2017-Dec-14 18:01N 34°24' E 134°13'7711.4
2017-Dec-14 11:17N 34°06' E 132°43'312.1
2017-Dec-14 11:00N 34°05' E 132°39'712.4
2017-Dec-14 10:27N 34°02' E 132°32'511.2
2017-Dec-14 09:58N 34°03' E 132°26'612.7
2017-Dec-14 09:30N 34°08' E 132°22'612.3
2017-Dec-14 09:01N 34°14' E 132°20'611.8
2017-Dec-14 08:31N 34°18' E 132°26'510.2
2017-Dec-14 08:01N 34°21' E 132°31'0 0.2
2017-Dec-14 07:28N 34°21' E 132°31'0 0.0
2017-Dec-14 06:58N 34°21' E 132°31'0 0.0
2017-Dec-14 06:28N 34°21' E 132°31'0 0.0
2017-Dec-14 05:58N 34°21' E 132°31'0 0.0
2017-Dec-14 05:28N 34°21' E 132°31'0 0.0
2017-Dec-14 04:58N 34°21' E 132°31'0 0.0
2017-Dec-14 04:28N 34°21' E 132°31'0 0.0
2017-Dec-14 03:55N 34°21' E 132°31'0 0.0
2017-Dec-14 03:28N 34°21' E 132°31'0 0.0
2017-Dec-14 02:58N 34°21' E 132°31'0 0.0
2017-Dec-14 02:28N 34°21' E 132°31'0 0.0
2017-Dec-14 01:58N 34°21' E 132°31'2 4.1
2017-Dec-14 01:27N 34°20' E 132°28'510.3
2017-Dec-14 01:00N 34°17' E 132°24'611.5
2017-Dec-14 00:30N 34°12' E 132°20'712.4
2017-Dec-13 23:59N 34°06' E 132°24'713.1
2017-Dec-13 23:26N 34°02' E 132°31'512.4
2017-Dec-13 23:00N 34°03' E 132°37'8911.0
2017-Dec-13 14:58N 34°24' E 134°21'612.6
2017-Dec-13 14:30N 34°27' E 134°28'612.8
2017-Dec-13 14:00N 34°29' E 134°35'612.4
2017-Dec-13 13:30N 34°32' E 134°42'612.1
2017-Dec-13 13:00N 34°34' E 134°49'611.5
2017-Dec-13 12:30N 34°36' E 134°55'510.9
2017-Dec-13 12:00N 34°37' E 135°02'611.8
2017-Dec-13 11:30N 34°36' E 135°09'713.1
2017-Dec-13 11:00N 34°37' E 135°17'612.0
2017-Dec-13 10:30N 34°38' E 135°24'1 1.9
2017-Dec-13 09:58N 34°38' E 135°25'0 0.2
2017-Dec-13 09:31N 34°37' E 135°25'4 7.5
2017-Dec-13 09:01N 34°37' E 135°21'1 1.8
2017-Dec-13 08:28N 34°37' E 135°20'0 0.0
2017-Dec-13 07:58N 34°37' E 135°20'0 0.0
2017-Dec-13 07:31N 34°37' E 135°20'0 0.0
2017-Dec-13 07:00N 34°37' E 135°20'3 5.9
2017-Dec-13 06:31N 34°40' E 135°18'2 3.2
2017-Dec-13 06:00N 34°41' E 135°17'0 0.0
2017-Dec-13 05:30N 34°41' E 135°17'0 0.0
2017-Dec-13 05:00N 34°41' E 135°17'2 3.3
2017-Dec-13 04:31N 34°40' E 135°15'1 1.2
2017-Dec-13 03:59N 34°40' E 135°14'0 0.0
2017-Dec-13 03:29N 34°40' E 135°14'0 0.0
2017-Dec-13 02:59N 34°40' E 135°14'0 0.0
2017-Dec-13 02:29N 34°40' E 135°14'0 0.0
2017-Dec-13 01:59N 34°40' E 135°14'0 0.0
2017-Dec-13 01:29N 34°40' E 135°14'0 0.6
2017-Dec-13 01:00N 34°39' E 135°15'3 5.1
2017-Dec-13 00:31N 34°37' E 135°15'612.7
2017-Dec-13 00:00N 34°35' E 135°07'612.6
2017-Dec-12 23:31N 34°37' E 135°00'612.8
2017-Dec-12 23:00N 34°35' E 134°53'612.1
2017-Dec-12 22:30N 34°32' E 134°46'612.5
2017-Dec-12 22:00N 34°30' E 134°39'612.7
2017-Dec-12 21:30N 34°27' E 134°32'612.8
2017-Dec-12 21:01N 34°25' E 134°25'912.4
2017-Dec-12 20:16N 34°24' E 134°14'412.3
2017-Dec-12 19:58N 34°25' E 134°10'7011.1
2017-Dec-12 13:40N 34°04' E 132°49'312.4
2017-Dec-12 13:28N 34°02' E 132°47'511.8
2017-Dec-12 13:00N 33°58' E 132°43'611.6
2017-Dec-12 12:27N 33°53' E 132°37'612.0
2017-Dec-12 11:57N 33°49' E 132°32'3111.9
2017-Dec-12 09:18N 33°44' E 131°55'413.0
2017-Dec-12 09:00N 33°46' E 131°51'713.1
2017-Dec-12 08:31N 33°50' E 131°45'713.1
2017-Dec-12 08:00N 33°55' E 131°39'612.9
2017-Dec-12 07:31N 33°59' E 131°33'2 3.1
2017-Dec-12 07:00N 34°01' E 131°34'0 0.0
2017-Dec-12 06:31N 34°01' E 131°34'0 0.0
2017-Dec-12 06:00N 34°01' E 131°34'0 0.0
2017-Dec-12 05:30N 34°01' E 131°34'2 4.4
2017-Dec-12 05:00N 33°58' E 131°34'612.6
2017-Dec-12 04:30N 33°58' E 131°42'611.6
2017-Dec-12 04:00N 33°54' E 131°47'611.6
2017-Dec-12 03:28N 33°51' E 131°54'511.5
2017-Dec-12 03:00N 33°48' E 131°59'510.1
2017-Dec-12 02:31N 33°46' E 132°04'612.7
2017-Dec-12 02:00N 33°49' E 132°11'612.2
2017-Dec-12 01:29N 33°50' E 132°19'812.6
2017-Dec-12 00:50N 33°52' E 132°28'412.7
2017-Dec-12 00:30N 33°53' E 132°33'813.1
2017-Dec-11 23:55N 33°57' E 132°41'512.9
2017-Dec-11 23:30N 34°01' E 132°45'7610.7
2017-Dec-11 16:24N 34°24' E 134°13'710.9
2017-Dec-11 15:46N 34°24' E 134°21'311.9
2017-Dec-11 15:30N 34°26' E 134°25'612.0
2017-Dec-11 15:01N 34°28' E 134°32'611.4
2017-Dec-11 14:30N 34°30' E 134°38'510.6
2017-Dec-11 14:00N 34°32' E 134°44'510.0
2017-Dec-11 13:31N 34°34' E 134°49'5 9.7
2017-Dec-11 13:01N 34°36' E 134°55'5 9.2
2017-Dec-11 12:31N 34°38' E 135°00'4 8.0
2017-Dec-11 12:00N 34°36' E 135°05'510.8
2017-Dec-11 11:30N 34°37' E 135°11'5 9.2
2017-Dec-11 11:01N 34°40' E 135°15'1 2.3
2017-Dec-11 10:30N 34°40' E 135°14'0 0.0
2017-Dec-11 10:01N 34°40' E 135°14'0 0.0
2017-Dec-11 09:30N 34°40' E 135°14'0 0.0
2017-Dec-11 09:01N 34°40' E 135°14'0 0.0
2017-Dec-11 08:31N 34°40' E 135°14'0 0.0
2017-Dec-11 08:00N 34°40' E 135°14'0 0.0
2017-Dec-11 07:31N 34°40' E 135°14'0 0.0
2017-Dec-11 07:00N 34°40' E 135°14'2 3.7
2017-Dec-11 06:30N 34°41' E 135°16'0 1.0
2017-Dec-11 06:00N 34°41' E 135°17'0 0.0
2017-Dec-11 05:30N 34°41' E 135°17'0 0.5
2017-Dec-11 04:58N 34°41' E 135°16'1 1.5
2017-Dec-11 04:30N 34°41' E 135°16'3 5.2
2017-Dec-11 04:00N 34°41' E 135°12'0 0.0
2017-Dec-11 03:30N 34°41' E 135°12'0 0.0
2017-Dec-11 03:00N 34°41' E 135°12'0 0.0
2017-Dec-11 02:30N 34°41' E 135°12'0 0.0
2017-Dec-11 02:00N 34°41' E 135°12'0 0.0
2017-Dec-11 01:30N 34°41' E 135°12'0 0.0
2017-Dec-11 01:00N 34°41' E 135°12'0 0.0
2017-Dec-11 00:30N 34°41' E 135°12'0 0.0
2017-Dec-11 00:00N 34°41' E 135°12'0 0.0
2017-Dec-10 23:30N 34°41' E 135°12'0 0.0
2017-Dec-10 23:00N 34°41' E 135°12'0 0.0
2017-Dec-10 22:30N 34°41' E 135°12'0 0.0
2017-Dec-10 22:00N 34°41' E 135°12'0 0.0
2017-Dec-10 21:30N 34°41' E 135°12'0 0.0
2017-Dec-10 21:00N 34°41' E 135°12'0 0.0
2017-Dec-10 20:30N 34°41' E 135°12'0 0.0
2017-Dec-10 20:00N 34°41' E 135°12'0 0.0
2017-Dec-10 19:30N 34°41' E 135°12'0 0.0
2017-Dec-10 18:57N 34°41' E 135°12'0 0.0
2017-Dec-10 18:30N 34°41' E 135°12'0 0.0
2017-Dec-10 18:00N 34°41' E 135°12'0 0.0
2017-Dec-10 17:30N 34°41' E 135°12'0 0.0
2017-Dec-10 17:00N 34°41' E 135°12'0 0.0
2017-Dec-10 16:30N 34°41' E 135°12'0 0.0
2017-Dec-10 16:00N 34°41' E 135°12'0 0.0
2017-Dec-10 15:30N 34°41' E 135°12'0 0.0
2017-Dec-10 15:00N 34°41' E 135°12'0 0.0
2017-Dec-10 14:30N 34°41' E 135°12'0 0.0
2017-Dec-10 14:00N 34°41' E 135°12'0 0.0
2017-Dec-10 13:30N 34°41' E 135°12'0 0.0
2017-Dec-10 13:00N 34°41' E 135°12'0 0.0
2017-Dec-10 12:30N 34°41' E 135°12'0 0.0
2017-Dec-10 12:00N 34°41' E 135°12'0 0.0
2017-Dec-10 11:30N 34°41' E 135°12'0 0.0
2017-Dec-10 11:00N 34°41' E 135°12'0 0.0
2017-Dec-10 10:30N 34°41' E 135°12'0 0.0
2017-Dec-10 10:00N 34°41' E 135°12'0 0.0
2017-Dec-10 09:30N 34°41' E 135°12'0 0.0
2017-Dec-10 09:00N 34°41' E 135°12'0 0.0
2017-Dec-10 08:30N 34°41' E 135°12'0 0.0
2017-Dec-10 08:00N 34°41' E 135°12'0 0.0
2017-Dec-10 07:30N 34°41' E 135°12'0 0.0
2017-Dec-10 07:00N 34°41' E 135°12'0 0.0
2017-Dec-10 06:30N 34°41' E 135°12'0 0.0
2017-Dec-10 06:00N 34°41' E 135°12'0 0.0
2017-Dec-10 05:30N 34°41' E 135°12'0 0.0
2017-Dec-10 05:00N 34°41' E 135°12'0 0.0
2017-Dec-10 04:30N 34°41' E 135°12'0 0.0
2017-Dec-10 04:00N 34°41' E 135°12'0 0.0
2017-Dec-10 03:30N 34°41' E 135°12'0 0.0
2017-Dec-10 03:00N 34°41' E 135°12'0 0.0
2017-Dec-10 02:30N 34°41' E 135°12'0 0.0
2017-Dec-10 02:00N 34°41' E 135°12'0 0.0
2017-Dec-10 01:30N 34°41' E 135°12'0 0.0
2017-Dec-10 01:00N 34°41' E 135°12'0 0.0
2017-Dec-10 00:30N 34°41' E 135°12'0 0.0
2017-Dec-09 23:57N 34°41' E 135°12'1 1.5
2017-Dec-09 23:31N 34°41' E 135°13'4 8.4
2017-Dec-09 23:00N 34°37' E 135°14'0 0.6
2017-Dec-09 22:28N 34°37' E 135°14'0 0.0
2017-Dec-09 21:58N 34°37' E 135°14'0 0.0
2017-Dec-09 21:28N 34°37' E 135°14'0 0.0
2017-Dec-09 20:58N 34°37' E 135°14'0 0.0
2017-Dec-09 20:28N 34°37' E 135°14'0 0.0
2017-Dec-09 19:58N 34°37' E 135°14'0 0.0
2017-Dec-09 19:28N 34°37' E 135°14'0 0.1
2017-Dec-09 18:58N 34°37' E 135°14'0 0.0
2017-Dec-09 18:28N 34°37' E 135°14'0 0.0
2017-Dec-09 17:59N 34°37' E 135°14'0 0.0
2017-Dec-09 17:29N 34°37' E 135°14'0 0.0
2017-Dec-09 16:58N 34°37' E 135°14'0 0.0
2017-Dec-09 16:28N 34°37' E 135°14'3 7.5
2017-Dec-09 16:00N 34°36' E 135°10'611.8
2017-Dec-09 15:30N 34°36' E 135°03'510.4
2017-Dec-09 15:00N 34°36' E 134°56'611.7
2017-Dec-09 14:30N 34°34' E 134°50'612.4
2017-Dec-09 14:00N 34°31' E 134°43'612.9
2017-Dec-09 13:30N 34°29' E 134°36'612.9
2017-Dec-09 13:00N 34°26' E 134°28'613.0
2017-Dec-09 12:30N 34°24' E 134°21'713.0
2017-Dec-09 11:59N 34°24' E 134°13'7712.4
2017-Dec-09 05:46N 34°06' E 132°42'413.8
2017-Dec-09 05:30N 34°05' E 132°38'713.3
2017-Dec-09 05:00N 34°01' E 132°31'611.2
2017-Dec-09 04:30N 34°04' E 132°25'612.8
2017-Dec-09 04:00N 34°09' E 132°21'612.1
2017-Dec-09 03:30N 34°15' E 132°21'612.2
2017-Dec-09 03:00N 34°18' E 132°28'4 7.7
2017-Dec-09 02:30N 34°21' E 132°31'0 0.0
2017-Dec-09 02:00N 34°21' E 132°31'0 0.0
2017-Dec-09 01:30N 34°21' E 132°31'0 0.0
2017-Dec-09 01:00N 34°21' E 132°31'0 0.0
2017-Dec-09 00:30N 34°21' E 132°31'0 0.0
2017-Dec-09 00:00N 34°21' E 132°31'0 0.0
2017-Dec-08 23:30N 34°21' E 132°31'0 0.0
2017-Dec-08 23:00N 34°21' E 132°31'2 4.6
2017-Dec-08 22:31N 34°19' E 132°29'612.5
2017-Dec-08 22:00N 34°16' E 132°23'612.6
2017-Dec-08 21:30N 34°10' E 132°22'712.4
2017-Dec-08 20:58N 34°05' E 132°27'710.7
2017-Dec-08 20:20N 34°03' E 132°35'513.4
2017-Dec-08 20:00N 34°05' E 132°40'8512.0
2017-Dec-08 12:54N 34°25' E 134°21'512.4
2017-Dec-08 12:30N 34°27' E 134°26'612.6
2017-Dec-08 12:00N 34°29' E 134°33'612.5
2017-Dec-08 11:30N 34°31' E 134°41'612.6
2017-Dec-08 11:00N 34°33' E 134°48'611.8
2017-Dec-08 10:30N 34°36' E 134°54'611.0
2017-Dec-08 10:00N 34°38' E 135°01'5 9.6
2017-Dec-08 09:30N 34°36' E 135°06'611.8
2017-Dec-08 09:00N 34°37' E 135°13'510.4
2017-Dec-08 08:30N 34°40' E 135°18'1 3.0
2017-Dec-08 08:00N 34°41' E 135°17'0 0.1
2017-Dec-08 07:30N 34°41' E 135°17'0 0.0
2017-Dec-08 07:00N 34°41' E 135°17'0 1.0
2017-Dec-08 06:30N 34°41' E 135°16'2 3.7
2017-Dec-08 06:00N 34°39' E 135°15'0 0.3
2017-Dec-08 05:29N 34°39' E 135°15'0 0.1
2017-Dec-08 04:59N 34°39' E 135°15'0 0.0
2017-Dec-08 04:29N 34°39' E 135°15'0 0.0
2017-Dec-08 03:59N 34°39' E 135°15'0 0.0
2017-Dec-08 03:29N 34°39' E 135°15'0 0.0
2017-Dec-08 03:00N 34°39' E 135°15'2 4.6
2017-Dec-08 02:30N 34°41' E 135°17'0 0.0
2017-Dec-08 02:01N 34°41' E 135°17'0 0.5
2017-Dec-08 01:30N 34°41' E 135°17'3 6.8
2017-Dec-08 01:00N 34°38' E 135°19'0 0.2
2017-Dec-08 00:30N 34°38' E 135°19'0 0.0
2017-Dec-08 00:00N 34°38' E 135°19'0 0.2
2017-Dec-07 23:30N 34°38' E 135°19'0 0.0
2017-Dec-07 23:00N 34°38' E 135°19'0 0.0
2017-Dec-07 22:30N 34°38' E 135°19'0 0.1
2017-Dec-07 22:00N 34°38' E 135°19'0 0.1
2017-Dec-07 21:30N 34°38' E 135°19'0 0.1
2017-Dec-07 21:00N 34°38' E 135°19'0 0.2
2017-Dec-07 20:30N 34°38' E 135°19'611.2
2017-Dec-07 20:00N 34°36' E 135°13'713.4
2017-Dec-07 19:31N 34°35' E 135°05'714.5
2017-Dec-07 19:01N 34°36' E 134°56'815.0
2017-Dec-07 18:30N 34°33' E 134°48'713.5
2017-Dec-07 18:00N 34°30' E 134°41'713.4
2017-Dec-07 17:30N 34°28' E 134°33'713.2
2017-Dec-07 17:00N 34°25' E 134°25'713.2
2017-Dec-07 16:28N 34°24' E 134°17'612.9
2017-Dec-07 15:59N 34°25' E 134°10'  
Track history (hours):
 
Tides and Currents Weather Stations Pressure Air Temp Water Temp Dewpoint Dewpoint Depression Visibility Wind Speed Wind Dir Waves Ship Positions

Ashiya

Last reported at 2017-Dec-17 13:30 UTC. Time now 2017-Dec-17 14:00 UTC.
Position N 34°41' E 135°13'.

Length 96 m; draft 4.5 m.

Type: Cargo ship. MMSI: 431501871.

Date/timePositionNaut miles runAvg speedWind from/ knotsBaromVisibWave heightAir tempDewpointWater temp
2017-Dec-17 13:30N 34°41' E 135°13'0 0.0
2017-Dec-17 13:00N 34°41' E 135°13'0 0.0
2017-Dec-17 12:30N 34°41' E 135°13'0 0.0
2017-Dec-17 12:00N 34°41' E 135°13'0 0.0
2017-Dec-17 11:30N 34°41' E 135°13'0 0.0
2017-Dec-17 11:00N 34°41' E 135°13'0 0.0
2017-Dec-17 10:30N 34°41' E 135°13'0 0.0
2017-Dec-17 10:00N 34°41' E 135°13'0 0.0
2017-Dec-17 09:30N 34°41' E 135°13'0 0.0
2017-Dec-17 09:00N 34°41' E 135°13'0 0.0
2017-Dec-17 08:30N 34°41' E 135°13'0 0.0
2017-Dec-17 08:00N 34°41' E 135°13'0 0.0
2017-Dec-17 07:30N 34°41' E 135°13'0 0.0
2017-Dec-17 07:00N 34°41' E 135°13'0 0.0
2017-Dec-17 06:30N 34°41' E 135°13'0 0.0
2017-Dec-17 06:00N 34°41' E 135°13'0 0.0
2017-Dec-17 05:30N 34°41' E 135°13'0 0.0
2017-Dec-17 05:00N 34°41' E 135°13'0 0.0
2017-Dec-17 04:30N 34°41' E 135°13'0 0.0
2017-Dec-17 04:00N 34°41' E 135°13'0 0.0
2017-Dec-17 03:30N 34°41' E 135°13'0 0.0
2017-Dec-17 03:00N 34°41' E 135°13'0 0.0
2017-Dec-17 02:30N 34°41' E 135°13'0 0.0
2017-Dec-17 02:00N 34°41' E 135°13'3 6.9
2017-Dec-17 01:30N 34°41' E 135°17'0 0.1
2017-Dec-17 00:58N 34°41' E 135°17'0 0.0
2017-Dec-17 00:31N 34°41' E 135°17'0 0.0
2017-Dec-17 00:01N 34°41' E 135°17'0 0.0
2017-Dec-16 23:31N 34°41' E 135°17'2 3.8
2017-Dec-16 23:01N 34°40' E 135°19'2 4.4
2017-Dec-16 22:28N 34°38' E 135°19'0 0.1
2017-Dec-16 21:58N 34°38' E 135°19'0 0.1
2017-Dec-16 21:28N 34°38' E 135°19'0 0.0
2017-Dec-16 20:58N 34°38' E 135°19'0 0.0
2017-Dec-16 20:28N 34°38' E 135°19'0 0.0
2017-Dec-16 19:58N 34°38' E 135°19'0 0.1
2017-Dec-16 19:28N 34°38' E 135°19'0 0.1
2017-Dec-16 18:58N 34°38' E 135°19'0 1.1
2017-Dec-16 18:31N 34°37' E 135°19'612.4
2017-Dec-16 18:00N 34°35' E 135°12'713.8
2017-Dec-16 17:31N 34°35' E 135°04'714.1
2017-Dec-16 17:01N 34°35' E 134°55'714.7
2017-Dec-16 16:30N 34°32' E 134°47'713.4
2017-Dec-16 16:01N 34°29' E 134°40'713.0
2017-Dec-16 15:30N 34°27' E 134°32'613.0
2017-Dec-16 15:00N 34°25' E 134°25'713.3
2017-Dec-16 14:29N 34°24' E 134°17'714.3
2017-Dec-16 14:01N 34°26' E 134°09'7112.6
2017-Dec-16 08:22N 34°07' E 132°45'513.1
2017-Dec-16 08:00N 34°05' E 132°40'713.0
2017-Dec-16 07:30N 34°02' E 132°33'511.0
2017-Dec-16 07:00N 34°03' E 132°26'712.8
2017-Dec-16 06:29N 34°08' E 132°22'612.4
2017-Dec-16 06:00N 34°14' E 132°20'611.7
2017-Dec-16 05:30N 34°17' E 132°26'5 9.2
2017-Dec-16 05:00N 34°21' E 132°29'1 1.8
2017-Dec-16 04:30N 34°21' E 132°31'0 0.0
2017-Dec-16 04:00N 34°21' E 132°31'0 0.0
2017-Dec-16 03:30N 34°21' E 132°31'0 0.0
2017-Dec-16 03:00N 34°21' E 132°31'0 0.0
2017-Dec-16 02:30N 34°21' E 132°31'0 0.0
2017-Dec-16 01:57N 34°21' E 132°31'0 0.0
2017-Dec-16 01:27N 34°21' E 132°31'0 0.0
2017-Dec-16 01:00N 34°21' E 132°31'0 0.0
2017-Dec-16 00:30N 34°21' E 132°31'0 0.0
2017-Dec-16 00:00N 34°21' E 132°31'0 0.0
2017-Dec-15 23:30N 34°21' E 132°31'2 4.3
2017-Dec-15 23:00N 34°19' E 132°29'0 0.8
2017-Dec-15 22:29N 34°19' E 132°29'0 0.1
2017-Dec-15 21:59N 34°19' E 132°29'2 4.2
2017-Dec-15 21:30N 34°20' E 132°26'511.0
2017-Dec-15 21:00N 34°17' E 132°21'612.7
2017-Dec-15 20:30N 34°10' E 132°20'612.7
2017-Dec-15 20:01N 34°05' E 132°25'910.3
2017-Dec-15 19:09N 34°03' E 132°35'212.3
2017-Dec-15 19:00N 34°04' E 132°37'1812.6
2017-Dec-15 17:36N 34°10' E 132°57'7211.5
2017-Dec-15 11:19N 34°25' E 134°23'412.9
2017-Dec-15 11:00N 34°27' E 134°27'613.0
2017-Dec-15 10:30N 34°29' E 134°34'713.1
2017-Dec-15 10:00N 34°32' E 134°42'713.6
2017-Dec-15 09:30N 34°34' E 134°49'714.2
2017-Dec-15 09:01N 34°37' E 134°57'713.1
2017-Dec-15 08:30N 34°36' E 135°05'612.8
2017-Dec-15 08:00N 34°37' E 135°13'611.3
2017-Dec-15 07:31N 34°40' E 135°18'1 2.0
2017-Dec-15 06:59N 34°41' E 135°17'0 0.1
2017-Dec-15 06:29N 34°41' E 135°17'1 2.1
2017-Dec-15 06:00N 34°40' E 135°16'2 3.1
2017-Dec-15 05:29N 34°39' E 135°15'0 0.0
2017-Dec-15 04:59N 34°39' E 135°15'0 0.0
2017-Dec-15 04:29N 34°39' E 135°15'0 0.0
2017-Dec-15 03:59N 34°39' E 135°15'0 0.1
2017-Dec-15 02:31N 34°39' E 135°15'2 1.5
2017-Dec-15 00:59N 34°41' E 135°17'0 0.0
2017-Dec-15 00:31N 34°41' E 135°17'49 8.2
2017-Dec-14 18:30N 34°24' E 134°21'612.6
2017-Dec-14 18:01N 34°24' E 134°13'7711.4
2017-Dec-14 11:17N 34°06' E 132°43'312.1
2017-Dec-14 11:00N 34°05' E 132°39'712.4
2017-Dec-14 10:27N 34°02' E 132°32'511.2
2017-Dec-14 09:58N 34°03' E 132°26'612.7
2017-Dec-14 09:30N 34°08' E 132°22'612.3
2017-Dec-14 09:01N 34°14' E 132°20'611.8
2017-Dec-14 08:31N 34°18' E 132°26'510.2
2017-Dec-14 08:01N 34°21' E 132°31'0 0.2
2017-Dec-14 07:28N 34°21' E 132°31'0 0.0
2017-Dec-14 06:58N 34°21' E 132°31'0 0.0
2017-Dec-14 06:28N 34°21' E 132°31'0 0.0
2017-Dec-14 05:58N 34°21' E 132°31'0 0.0
2017-Dec-14 05:28N 34°21' E 132°31'0 0.0
2017-Dec-14 04:58N 34°21' E 132°31'0 0.0
2017-Dec-14 04:28N 34°21' E 132°31'0 0.0
2017-Dec-14 03:55N 34°21' E 132°31'0 0.0
2017-Dec-14 03:28N 34°21' E 132°31'0 0.0
2017-Dec-14 02:58N 34°21' E 132°31'0 0.0
2017-Dec-14 02:28N 34°21' E 132°31'0 0.0
2017-Dec-14 01:58N 34°21' E 132°31'2 4.1
2017-Dec-14 01:27N 34°20' E 132°28'510.3
2017-Dec-14 01:00N 34°17' E 132°24'611.5
2017-Dec-14 00:30N 34°12' E 132°20'712.4
2017-Dec-13 23:59N 34°06' E 132°24'713.1
2017-Dec-13 23:26N 34°02' E 132°31'512.4
2017-Dec-13 23:00N 34°03' E 132°37'8911.0
2017-Dec-13 14:58N 34°24' E 134°21'612.6
2017-Dec-13 14:30N 34°27' E 134°28'612.8
2017-Dec-13 14:00N 34°29' E 134°35'612.4
2017-Dec-13 13:30N 34°32' E 134°42'612.1
2017-Dec-13 13:00N 34°34' E 134°49'611.5
2017-Dec-13 12:30N 34°36' E 134°55'510.9
2017-Dec-13 12:00N 34°37' E 135°02'611.8
2017-Dec-13 11:30N 34°36' E 135°09'713.1
2017-Dec-13 11:00N 34°37' E 135°17'612.0
2017-Dec-13 10:30N 34°38' E 135°24'1 1.9
2017-Dec-13 09:58N 34°38' E 135°25'0 0.2
2017-Dec-13 09:31N 34°37' E 135°25'4 7.5
2017-Dec-13 09:01N 34°37' E 135°21'1 1.8
2017-Dec-13 08:28N 34°37' E 135°20'0 0.0
2017-Dec-13 07:58N 34°37' E 135°20'0 0.0
2017-Dec-13 07:31N 34°37' E 135°20'0 0.0
2017-Dec-13 07:00N 34°37' E 135°20'3 5.9
2017-Dec-13 06:31N 34°40' E 135°18'2 3.2
2017-Dec-13 06:00N 34°41' E 135°17'0 0.0
2017-Dec-13 05:30N 34°41' E 135°17'0 0.0
2017-Dec-13 05:00N 34°41' E 135°17'2 3.3
2017-Dec-13 04:31N 34°40' E 135°15'1 1.2
2017-Dec-13 03:59N 34°40' E 135°14'0 0.0
2017-Dec-13 03:29N 34°40' E 135°14'0 0.0
2017-Dec-13 02:59N 34°40' E 135°14'0 0.0
2017-Dec-13 02:29N 34°40' E 135°14'0 0.0
2017-Dec-13 01:59N 34°40' E 135°14'0 0.0
2017-Dec-13 01:29N 34°40' E 135°14'0 0.6
2017-Dec-13 01:00N 34°39' E 135°15'3 5.1
2017-Dec-13 00:31N 34°37' E 135°15'612.7
2017-Dec-13 00:00N 34°35' E 135°07'612.6
2017-Dec-12 23:31N 34°37' E 135°00'612.8
2017-Dec-12 23:00N 34°35' E 134°53'612.1
2017-Dec-12 22:30N 34°32' E 134°46'612.5
2017-Dec-12 22:00N 34°30' E 134°39'612.7
2017-Dec-12 21:30N 34°27' E 134°32'612.8
2017-Dec-12 21:01N 34°25' E 134°25'912.4
2017-Dec-12 20:16N 34°24' E 134°14'412.3
2017-Dec-12 19:58N 34°25' E 134°10'7011.1
2017-Dec-12 13:40N 34°04' E 132°49'312.4
2017-Dec-12 13:28N 34°02' E 132°47'511.8
2017-Dec-12 13:00N 33°58' E 132°43'611.6
2017-Dec-12 12:27N 33°53' E 132°37'612.0
2017-Dec-12 11:57N 33°49' E 132°32'3111.9
2017-Dec-12 09:18N 33°44' E 131°55'413.0
2017-Dec-12 09:00N 33°46' E 131°51'713.1
2017-Dec-12 08:31N 33°50' E 131°45'713.1
2017-Dec-12 08:00N 33°55' E 131°39'612.9
2017-Dec-12 07:31N 33°59' E 131°33'2 3.1
2017-Dec-12 07:00N 34°01' E 131°34'0 0.0
2017-Dec-12 06:31N 34°01' E 131°34'0 0.0
2017-Dec-12 06:00N 34°01' E 131°34'0 0.0
2017-Dec-12 05:30N 34°01' E 131°34'2 4.4
2017-Dec-12 05:00N 33°58' E 131°34'612.6
2017-Dec-12 04:30N 33°58' E 131°42'611.6
2017-Dec-12 04:00N 33°54' E 131°47'611.6
2017-Dec-12 03:28N 33°51' E 131°54'511.5
2017-Dec-12 03:00N 33°48' E 131°59'510.1
2017-Dec-12 02:31N 33°46' E 132°04'612.7
2017-Dec-12 02:00N 33°49' E 132°11'612.2
2017-Dec-12 01:29N 33°50' E 132°19'812.6
2017-Dec-12 00:50N 33°52' E 132°28'412.7
2017-Dec-12 00:30N 33°53' E 132°33'813.1
2017-Dec-11 23:55N 33°57' E 132°41'512.9
2017-Dec-11 23:30N 34°01' E 132°45'7610.7
2017-Dec-11 16:24N 34°24' E 134°13'710.9
2017-Dec-11 15:46N 34°24' E 134°21'311.9
2017-Dec-11 15:30N 34°26' E 134°25'612.0
2017-Dec-11 15:01N 34°28' E 134°32'611.4
2017-Dec-11 14:30N 34°30' E 134°38'510.6
2017-Dec-11 14:00N 34°32' E 134°44'510.0
2017-Dec-11 13:31N 34°34' E 134°49'5 9.7
2017-Dec-11 13:01N 34°36' E 134°55'5 9.2
2017-Dec-11 12:31N 34°38' E 135°00'4 8.0
2017-Dec-11 12:00N 34°36' E 135°05'510.8
2017-Dec-11 11:30N 34°37' E 135°11'5 9.2
2017-Dec-11 11:01N 34°40' E 135°15'1 2.3
2017-Dec-11 10:30N 34°40' E 135°14'0 0.0
2017-Dec-11 10:01N 34°40' E 135°14'0 0.0
2017-Dec-11 09:30N 34°40' E 135°14'0 0.0
2017-Dec-11 09:01N 34°40' E 135°14'0 0.0
2017-Dec-11 08:31N 34°40' E 135°14'0 0.0
2017-Dec-11 08:00N 34°40' E 135°14'0 0.0
2017-Dec-11 07:31N 34°40' E 135°14'0 0.0
2017-Dec-11 07:00N 34°40' E 135°14'2 3.7
2017-Dec-11 06:30N 34°41' E 135°16'0 1.0
2017-Dec-11 06:00N 34°41' E 135°17'0 0.0
2017-Dec-11 05:30N 34°41' E 135°17'0 0.5
2017-Dec-11 04:58N 34°41' E 135°16'1 1.5
2017-Dec-11 04:30N 34°41' E 135°16'3 5.2
2017-Dec-11 04:00N 34°41' E 135°12'0 0.0
2017-Dec-11 03:30N 34°41' E 135°12'0 0.0
2017-Dec-11 03:00N 34°41' E 135°12'0 0.0
2017-Dec-11 02:30N 34°41' E 135°12'0 0.0
2017-Dec-11 02:00N 34°41' E 135°12'0 0.0
2017-Dec-11 01:30N 34°41' E 135°12'0 0.0
2017-Dec-11 01:00N 34°41' E 135°12'0 0.0
2017-Dec-11 00:30N 34°41' E 135°12'0 0.0
2017-Dec-11 00:00N 34°41' E 135°12'0 0.0
2017-Dec-10 23:30N 34°41' E 135°12'0 0.0
2017-Dec-10 23:00N 34°41' E 135°12'0 0.0
2017-Dec-10 22:30N 34°41' E 135°12'0 0.0
2017-Dec-10 22:00N 34°41' E 135°12'0 0.0
2017-Dec-10 21:30N 34°41' E 135°12'0 0.0
2017-Dec-10 21:00N 34°41' E 135°12'0 0.0
2017-Dec-10 20:30N 34°41' E 135°12'0 0.0
2017-Dec-10 20:00N 34°41' E 135°12'0 0.0
2017-Dec-10 19:30N 34°41' E 135°12'0 0.0
2017-Dec-10 18:57N 34°41' E 135°12'0 0.0
2017-Dec-10 18:30N 34°41' E 135°12'0 0.0
2017-Dec-10 18:00N 34°41' E 135°12'0 0.0
2017-Dec-10 17:30N 34°41' E 135°12'0 0.0
2017-Dec-10 17:00N 34°41' E 135°12'0 0.0
2017-Dec-10 16:30N 34°41' E 135°12'0 0.0
2017-Dec-10 16:00N 34°41' E 135°12'0 0.0
2017-Dec-10 15:30N 34°41' E 135°12'0 0.0
2017-Dec-10 15:00N 34°41' E 135°12'0 0.0
2017-Dec-10 14:30N 34°41' E 135°12'0 0.0
2017-Dec-10 14:00N 34°41' E 135°12'0 0.0
2017-Dec-10 13:30N 34°41' E 135°12'0 0.0
2017-Dec-10 13:00N 34°41' E 135°12'0 0.0
2017-Dec-10 12:30N 34°41' E 135°12'0 0.0
2017-Dec-10 12:00N 34°41' E 135°12'0 0.0
2017-Dec-10 11:30N 34°41' E 135°12'0 0.0
2017-Dec-10 11:00N 34°41' E 135°12'0 0.0
2017-Dec-10 10:30N 34°41' E 135°12'0 0.0
2017-Dec-10 10:00N 34°41' E 135°12'0 0.0
2017-Dec-10 09:30N 34°41' E 135°12'0 0.0
2017-Dec-10 09:00N 34°41' E 135°12'0 0.0
2017-Dec-10 08:30N 34°41' E 135°12'0 0.0
2017-Dec-10 08:00N 34°41' E 135°12'0 0.0
2017-Dec-10 07:30N 34°41' E 135°12'0 0.0
2017-Dec-10 07:00N 34°41' E 135°12'0 0.0
2017-Dec-10 06:30N 34°41' E 135°12'0 0.0
2017-Dec-10 06:00N 34°41' E 135°12'0 0.0
2017-Dec-10 05:30N 34°41' E 135°12'0 0.0
2017-Dec-10 05:00N 34°41' E 135°12'0 0.0
2017-Dec-10 04:30N 34°41' E 135°12'0 0.0
2017-Dec-10 04:00N 34°41' E 135°12'0 0.0
2017-Dec-10 03:30N 34°41' E 135°12'0 0.0
2017-Dec-10 03:00N 34°41' E 135°12'0 0.0
2017-Dec-10 02:30N 34°41' E 135°12'0 0.0
2017-Dec-10 02:00N 34°41' E 135°12'0 0.0
2017-Dec-10 01:30N 34°41' E 135°12'0 0.0
2017-Dec-10 01:00N 34°41' E 135°12'0 0.0
2017-Dec-10 00:30N 34°41' E 135°12'0 0.0
2017-Dec-09 23:57N 34°41' E 135°12'1 1.5
2017-Dec-09 23:31N 34°41' E 135°13'4 8.4
2017-Dec-09 23:00N 34°37' E 135°14'0 0.6
2017-Dec-09 22:28N 34°37' E 135°14'0 0.0
2017-Dec-09 21:58N 34°37' E 135°14'0 0.0
2017-Dec-09 21:28N 34°37' E 135°14'0 0.0
2017-Dec-09 20:58N 34°37' E 135°14'0 0.0
2017-Dec-09 20:28N 34°37' E 135°14'0 0.0
2017-Dec-09 19:58N 34°37' E 135°14'0 0.0
2017-Dec-09 19:28N 34°37' E 135°14'0 0.1
2017-Dec-09 18:58N 34°37' E 135°14'0 0.0
2017-Dec-09 18:28N 34°37' E 135°14'0 0.0
2017-Dec-09 17:59N 34°37' E 135°14'0 0.0
2017-Dec-09 17:29N 34°37' E 135°14'0 0.0
2017-Dec-09 16:58N 34°37' E 135°14'0 0.0
2017-Dec-09 16:28N 34°37' E 135°14'3 7.5
2017-Dec-09 16:00N 34°36' E 135°10'611.8
2017-Dec-09 15:30N 34°36' E 135°03'510.4
2017-Dec-09 15:00N 34°36' E 134°56'611.7
2017-Dec-09 14:30N 34°34' E 134°50'612.4
2017-Dec-09 14:00N 34°31' E 134°43'612.9
2017-Dec-09 13:30N 34°29' E 134°36'612.9
2017-Dec-09 13:00N 34°26' E 134°28'613.0
2017-Dec-09 12:30N 34°24' E 134°21'713.0
2017-Dec-09 11:59N 34°24' E 134°13'7712.4
2017-Dec-09 05:46N 34°06' E 132°42'413.8
2017-Dec-09 05:30N 34°05' E 132°38'713.3
2017-Dec-09 05:00N 34°01' E 132°31'611.2
2017-Dec-09 04:30N 34°04' E 132°25'612.8
2017-Dec-09 04:00N 34°09' E 132°21'612.1
2017-Dec-09 03:30N 34°15' E 132°21'612.2
2017-Dec-09 03:00N 34°18' E 132°28'4 7.7
2017-Dec-09 02:30N 34°21' E 132°31'0 0.0
2017-Dec-09 02:00N 34°21' E 132°31'0 0.0
2017-Dec-09 01:30N 34°21' E 132°31'0 0.0
2017-Dec-09 01:00N 34°21' E 132°31'0 0.0
2017-Dec-09 00:30N 34°21' E 132°31'0 0.0
2017-Dec-09 00:00N 34°21' E 132°31'0 0.0
2017-Dec-08 23:30N 34°21' E 132°31'0 0.0
2017-Dec-08 23:00N 34°21' E 132°31'2 4.6
2017-Dec-08 22:31N 34°19' E 132°29'612.5
2017-Dec-08 22:00N 34°16' E 132°23'612.6
2017-Dec-08 21:30N 34°10' E 132°22'712.4
2017-Dec-08 20:58N 34°05' E 132°27'710.7
2017-Dec-08 20:20N 34°03' E 132°35'513.4
2017-Dec-08 20:00N 34°05' E 132°40'8512.0
2017-Dec-08 12:54N 34°25' E 134°21'512.4
2017-Dec-08 12:30N 34°27' E 134°26'612.6
2017-Dec-08 12:00N 34°29' E 134°33'612.5
2017-Dec-08 11:30N 34°31' E 134°41'612.6
2017-Dec-08 11:00N 34°33' E 134°48'611.8
2017-Dec-08 10:30N 34°36' E 134°54'611.0
2017-Dec-08 10:00N 34°38' E 135°01'5 9.6
2017-Dec-08 09:30N 34°36' E 135°06'611.8
2017-Dec-08 09:00N 34°37' E 135°13'510.4
2017-Dec-08 08:30N 34°40' E 135°18'1 3.0
2017-Dec-08 08:00N 34°41' E 135°17'0 0.1
2017-Dec-08 07:30N 34°41' E 135°17'0 0.0
2017-Dec-08 07:00N 34°41' E 135°17'0 1.0
2017-Dec-08 06:30N 34°41' E 135°16'2 3.7
2017-Dec-08 06:00N 34°39' E 135°15'0 0.3
2017-Dec-08 05:29N 34°39' E 135°15'0 0.1
2017-Dec-08 04:59N 34°39' E 135°15'0 0.0
2017-Dec-08 04:29N 34°39' E 135°15'0 0.0
2017-Dec-08 03:59N 34°39' E 135°15'0 0.0
2017-Dec-08 03:29N 34°39' E 135°15'0 0.0
2017-Dec-08 03:00N 34°39' E 135°15'2 4.6
2017-Dec-08 02:30N 34°41' E 135°17'0 0.0
2017-Dec-08 02:01N 34°41' E 135°17'0 0.5
2017-Dec-08 01:30N 34°41' E 135°17'3 6.8
2017-Dec-08 01:00N 34°38' E 135°19'0 0.2
2017-Dec-08 00:30N 34°38' E 135°19'0 0.0
2017-Dec-08 00:00N 34°38' E 135°19'0 0.2
2017-Dec-07 23:30N 34°38' E 135°19'0 0.0
2017-Dec-07 23:00N 34°38' E 135°19'0 0.0
2017-Dec-07 22:30N 34°38' E 135°19'0 0.1
2017-Dec-07 22:00N 34°38' E 135°19'0 0.1
2017-Dec-07 21:30N 34°38' E 135°19'0 0.1
2017-Dec-07 21:00N 34°38' E 135°19'0 0.2
2017-Dec-07 20:30N 34°38' E 135°19'611.2
2017-Dec-07 20:00N 34°36' E 135°13'713.4
2017-Dec-07 19:31N 34°35' E 135°05'714.5
2017-Dec-07 19:01N 34°36' E 134°56'815.0
2017-Dec-07 18:30N 34°33' E 134°48'713.5
2017-Dec-07 18:00N 34°30' E 134°41'713.4
2017-Dec-07 17:30N 34°28' E 134°33'713.2
2017-Dec-07 17:00N 34°25' E 134°25'713.2
2017-Dec-07 16:28N 34°24' E 134°17'612.9
2017-Dec-07 15:59N 34°25' E 134°10'  

Dump ship's entire track history